createdAt,value
2022-12-03T00:02:21.467Z,0.96
2022-12-03T00:05:23.410Z,0.90
2022-12-03T00:08:25.349Z,0.93
2022-12-03T00:11:27.357Z,0.77
2022-12-03T00:14:29.771Z,0.91
2022-12-03T00:17:31.631Z,0.98
2022-12-03T00:20:33.664Z,0.93
2022-12-03T00:23:41.557Z,0.81
2022-12-03T00:26:45.142Z,0.78
2022-12-03T00:29:48.184Z,0.86
2022-12-03T00:32:50.319Z,0.91
2022-12-03T00:35:52.258Z,0.97
2022-12-03T00:38:54.081Z,0.95
2022-12-03T00:41:55.942Z,1.05
2022-12-03T00:44:57.905Z,1.03
2022-12-03T00:48:00.137Z,1.06
2022-12-03T00:51:02.551Z,1.06
2022-12-03T00:54:04.629Z,1.09
2022-12-03T00:57:06.955Z,0.95
2022-12-03T01:00:10.600Z,0.99
2022-12-03T01:03:12.387Z,0.93
2022-12-03T01:06:14.880Z,1.04
2022-12-03T01:09:16.725Z,0.91
2022-12-03T01:12:18.540Z,1.02
2022-12-03T01:15:20.313Z,1.00
2022-12-03T01:18:22.370Z,1.12
2022-12-03T01:21:24.422Z,1.11
2022-12-03T01:24:26.552Z,1.16
2022-12-03T01:27:28.734Z,1.09
2022-12-03T01:30:51.154Z,1.06
2022-12-03T01:33:55.395Z,1.13
2022-12-03T01:36:57.637Z,1.17
2022-12-03T01:39:59.436Z,1.21
2022-12-03T01:43:01.919Z,1.22
2022-12-03T01:46:04.333Z,1.32
2022-12-03T01:49:07.280Z,1.38
2022-12-03T01:52:18.805Z,1.43
2022-12-03T01:55:21.476Z,1.48
2022-12-03T01:58:27.620Z,1.55
2022-12-03T02:01:29.674Z,1.61
2022-12-03T02:04:31.460Z,1.73
2022-12-03T02:07:36.931Z,1.79
2022-12-03T02:10:38.865Z,1.87
2022-12-03T02:13:43.050Z,1.92
2022-12-03T02:16:45.129Z,1.92
2022-12-03T02:19:47.669Z,1.90
2022-12-03T02:23:11.626Z,1.92
2022-12-03T02:26:13.851Z,1.85
2022-12-03T02:29:15.954Z,1.93
2022-12-03T02:32:17.862Z,2.00
2022-12-03T02:35:22.318Z,2.04
2022-12-03T02:38:26.617Z,2.07
2022-12-03T02:41:47.350Z,2.11
2022-12-03T02:44:49.097Z,2.16
2022-12-03T02:48:06.524Z,2.15
2022-12-03T02:51:09.630Z,2.15
2022-12-03T02:54:11.799Z,2.16
2022-12-03T02:57:15.635Z,2.13
2022-12-03T03:00:18.488Z,2.11
2022-12-03T03:03:25.032Z,2.11
2022-12-03T03:06:27.039Z,2.06
2022-12-03T03:09:28.773Z,2.11
2022-12-03T03:12:33.627Z,2.15
2022-12-03T03:15:40.775Z,2.08
2022-12-03T03:18:43.004Z,2.15
2022-12-03T03:21:44.820Z,2.13
2022-12-03T03:24:46.717Z,2.17
2022-12-03T03:27:48.924Z,2.15
2022-12-03T03:30:52.638Z,2.14
2022-12-03T03:33:54.986Z,2.08
2022-12-03T03:36:56.856Z,2.16
2022-12-03T03:39:58.659Z,2.16
2022-12-03T03:43:01.487Z,2.16
2022-12-03T03:46:05.239Z,2.16
2022-12-03T03:49:07.709Z,2.22
2022-12-03T03:52:11.772Z,2.22
2022-12-03T03:55:13.861Z,2.25
2022-12-03T03:58:17.045Z,2.14
2022-12-03T04:01:19.373Z,2.25
2022-12-03T04:04:23.607Z,2.20
2022-12-03T04:07:25.482Z,2.21
2022-12-03T04:10:46.561Z,2.23
2022-12-03T04:13:48.351Z,2.27
2022-12-03T04:16:50.786Z,2.32
2022-12-03T04:19:52.713Z,2.30
2022-12-03T04:22:54.514Z,2.36
2022-12-03T04:26:15.026Z,2.39
2022-12-03T04:29:17.906Z,2.41
2022-12-03T04:32:38.554Z,2.29
2022-12-03T04:35:43.275Z,2.24
2022-12-03T04:38:45.711Z,2.35
2022-12-03T04:41:47.635Z,2.28
2022-12-03T04:44:51.161Z,2.29
2022-12-03T04:47:53.388Z,2.35
2022-12-03T04:50:55.171Z,2.48
2022-12-03T04:53:57.492Z,2.53
2022-12-03T04:56:59.633Z,2.53
2022-12-03T05:00:01.737Z,2.52
2022-12-03T05:03:03.795Z,2.59
2022-12-03T05:06:05.885Z,2.61
2022-12-03T05:09:08.134Z,2.58
2022-12-03T05:12:10.077Z,2.57
2022-12-03T05:15:11.946Z,2.54
2022-12-03T05:18:14.311Z,2.45
2022-12-03T05:21:16.132Z,2.51
2022-12-03T05:24:18.291Z,2.56
2022-12-03T05:27:23.954Z,2.60
2022-12-03T05:30:26.359Z,2.51
2022-12-03T05:33:28.474Z,2.41
2022-12-03T05:36:30.335Z,2.38
2022-12-03T05:39:32.563Z,2.39
2022-12-03T05:42:53.042Z,2.34
2022-12-03T05:45:55.093Z,2.41
2022-12-03T05:48:56.969Z,2.28
2022-12-03T05:51:59.048Z,2.43
2022-12-03T05:55:01.661Z,2.48
2022-12-03T05:58:03.964Z,2.41
2022-12-03T06:01:08.922Z,2.32
2022-12-03T06:04:10.831Z,2.51
2022-12-03T06:07:14.287Z,2.50
2022-12-03T06:10:22.198Z,2.50
2022-12-03T06:13:24.680Z,2.44
2022-12-03T06:16:26.940Z,2.50
2022-12-03T06:19:29.440Z,2.55
2022-12-03T06:22:31.955Z,2.57
2022-12-03T06:25:33.841Z,2.49
2022-12-03T06:28:36.194Z,2.53
2022-12-03T06:31:38.426Z,2.51
2022-12-03T06:34:40.763Z,2.52
2022-12-03T06:37:43.321Z,2.53
2022-12-03T06:40:45.590Z,2.56
2022-12-03T06:43:48.106Z,2.54
2022-12-03T06:46:50.395Z,2.52
2022-12-03T06:49:52.596Z,2.55
2022-12-03T06:52:55.082Z,2.57
2022-12-03T06:55:57.097Z,2.61
2022-12-03T06:58:59.501Z,2.58
2022-12-03T07:02:01.601Z,2.61
2022-12-03T07:05:04.266Z,2.57
2022-12-03T07:08:07.418Z,2.54
2022-12-03T07:11:29.707Z,2.60
2022-12-03T07:14:32.133Z,2.51
2022-12-03T07:17:34.318Z,2.46
2022-12-03T07:20:36.891Z,2.52
2022-12-03T07:23:39.206Z,2.51
2022-12-03T07:26:41.572Z,2.52
2022-12-03T07:29:43.656Z,2.54
2022-12-03T07:32:45.848Z,2.58
2022-12-03T07:35:48.622Z,2.54
2022-12-03T07:38:54.119Z,2.62
2022-12-03T07:41:56.274Z,2.64
2022-12-03T07:44:58.536Z,2.71
2022-12-03T07:48:00.800Z,2.65
2022-12-03T07:51:03.296Z,2.65
2022-12-03T07:54:05.704Z,2.59
2022-12-03T07:57:08.579Z,2.65
2022-12-03T08:00:11.557Z,2.66
2022-12-03T08:03:13.998Z,2.65
2022-12-03T08:06:16.319Z,2.68
2022-12-03T08:09:18.261Z,2.72
2022-12-03T08:12:25.764Z,2.71
2022-12-03T08:15:33.856Z,2.69
2022-12-03T08:18:41.122Z,2.74
2022-12-03T08:21:43.753Z,2.83
2022-12-03T08:24:46.009Z,2.86
2022-12-03T08:27:48.893Z,2.91
2022-12-03T08:31:20.035Z,2.95
2022-12-03T08:34:24.383Z,2.99
2022-12-03T08:37:26.791Z,3.10
2022-12-03T08:40:37.255Z,3.02
2022-12-03T08:43:42.926Z,3.09
2022-12-03T08:47:18.169Z,3.10
2022-12-03T08:50:52.817Z,3.09
2022-12-03T08:54:02.064Z,3.22
2022-12-03T08:57:32.060Z,3.25
2022-12-03T09:00:34.164Z,3.25
2022-12-03T09:03:37.618Z,3.36
2022-12-03T09:06:39.630Z,3.49
2022-12-03T09:09:42.099Z,3.44
2022-12-03T09:12:44.126Z,3.45
2022-12-03T09:15:46.601Z,3.43
2022-12-03T09:18:48.587Z,3.57
2022-12-03T09:21:50.574Z,3.52
2022-12-03T09:24:53.373Z,3.45
2022-12-03T09:27:55.978Z,3.64
2022-12-03T09:30:58.607Z,3.68
2022-12-03T09:34:02.237Z,3.85
2022-12-03T09:37:04.113Z,3.97
2022-12-03T09:40:07.430Z,4.02
2022-12-03T09:43:10.827Z,3.96
2022-12-03T09:46:13.940Z,3.83
2022-12-03T09:49:19.202Z,3.96
2022-12-03T09:52:27.468Z,3.87
2022-12-03T09:55:30.289Z,3.80
2022-12-03T09:58:34.895Z,3.78
2022-12-03T10:01:37.230Z,3.93
2022-12-03T10:04:39.478Z,3.93
2022-12-03T10:07:42.077Z,3.85
2022-12-03T10:10:44.903Z,3.86
2022-12-03T10:13:47.617Z,3.80
2022-12-03T10:16:50.439Z,3.83
2022-12-03T10:19:52.884Z,3.94
2022-12-03T10:22:55.227Z,3.84
2022-12-03T10:25:59.638Z,3.80
2022-12-03T10:29:01.544Z,3.74
2022-12-03T10:32:06.850Z,3.78
2022-12-03T10:35:18.331Z,3.83
2022-12-03T10:38:24.089Z,3.78
2022-12-03T10:41:28.885Z,3.77
2022-12-03T10:44:30.813Z,3.65
2022-12-03T10:47:34.450Z,3.72
2022-12-03T10:50:37.507Z,3.73
2022-12-03T10:53:41.481Z,3.77
2022-12-03T10:56:44.403Z,3.66
2022-12-03T10:59:46.956Z,3.75
2022-12-03T11:02:54.876Z,3.73
2022-12-03T11:06:00.505Z,3.71
2022-12-03T11:09:08.754Z,3.81
2022-12-03T11:12:24.307Z,3.71
2022-12-03T11:15:43.950Z,3.76
2022-12-03T11:18:46.360Z,3.87
2022-12-03T11:22:11.793Z,3.89
2022-12-03T11:25:26.107Z,4.01
2022-12-03T11:28:28.515Z,4.10
2022-12-03T11:31:45.502Z,4.04
2022-12-03T11:34:48.034Z,3.97
2022-12-03T11:37:49.932Z,4.03
2022-12-03T11:41:22.774Z,4.03
2022-12-03T11:44:31.002Z,4.06
2022-12-03T11:47:46.887Z,4.02
2022-12-03T11:50:52.702Z,3.89
2022-12-03T11:53:58.661Z,3.92
2022-12-03T11:57:00.650Z,3.94
2022-12-03T12:00:07.500Z,3.95
2022-12-03T12:03:23.234Z,3.92
2022-12-03T12:06:25.386Z,4.07
2022-12-03T12:09:50.695Z,3.92
2022-12-03T12:12:55.037Z,3.94
2022-12-03T12:16:02.481Z,3.89
2022-12-03T12:19:32.918Z,4.03
2022-12-03T12:22:35.299Z,4.01
2022-12-03T12:25:40.506Z,4.12
2022-12-03T12:28:42.491Z,4.11
2022-12-03T12:31:48.258Z,4.17
2022-12-03T12:34:55.946Z,4.10
2022-12-03T12:38:11.435Z,4.06
2022-12-03T12:41:13.452Z,4.12
2022-12-03T12:44:15.586Z,4.17
2022-12-03T12:47:18.184Z,4.20
2022-12-03T12:50:20.878Z,4.21
2022-12-03T12:53:25.327Z,4.21
2022-12-03T12:56:30.636Z,4.26
2022-12-03T12:59:32.992Z,4.22
2022-12-03T13:02:44.791Z,4.19
2022-12-03T13:05:48.817Z,4.14
2022-12-03T13:08:51.472Z,4.21
2022-12-03T13:11:56.566Z,4.20
2022-12-03T13:15:00.162Z,4.17
2022-12-03T13:18:18.311Z,4.10
2022-12-03T13:21:41.922Z,4.14
2022-12-03T13:24:47.935Z,4.07
2022-12-03T13:27:51.230Z,4.13
2022-12-03T13:30:53.674Z,4.12
2022-12-03T13:33:56.790Z,4.10
2022-12-03T13:37:01.382Z,4.07
2022-12-03T13:40:18.030Z,4.09
2022-12-03T13:43:20.317Z,4.07
2022-12-03T13:46:22.463Z,4.19
2022-12-03T13:49:25.021Z,4.18
2022-12-03T13:52:27.256Z,4.17
2022-12-03T13:55:31.736Z,4.25
2022-12-03T13:58:33.986Z,4.16
2022-12-03T14:01:36.538Z,4.18
2022-12-03T14:04:39.589Z,4.23
2022-12-03T14:07:41.642Z,4.22
2022-12-03T14:10:44.133Z,4.23
2022-12-03T14:13:46.271Z,4.22
2022-12-03T14:16:48.377Z,4.20
2022-12-03T14:19:50.697Z,4.31
2022-12-03T14:22:58.850Z,4.29
2022-12-03T14:26:01.715Z,4.26
2022-12-03T14:29:08.548Z,4.19
2022-12-03T14:32:11.311Z,4.13
2022-12-03T14:35:13.480Z,4.14
2022-12-03T14:38:15.554Z,4.09
2022-12-03T14:41:36.068Z,4.17
2022-12-03T14:44:38.698Z,4.09
2022-12-03T14:47:40.884Z,3.82
2022-12-03T14:50:43.505Z,3.74
2022-12-03T14:53:45.866Z,3.77
2022-12-03T14:56:47.880Z,3.69
2022-12-03T14:59:50.099Z,3.75
2022-12-03T15:02:52.373Z,3.72
2022-12-03T15:05:54.924Z,3.62
2022-12-03T15:08:57.177Z,3.63
2022-12-03T15:12:00.287Z,3.60
2022-12-03T15:15:02.611Z,3.55
2022-12-03T15:18:04.500Z,3.61
2022-12-03T15:21:07.201Z,3.51
2022-12-03T15:24:10.591Z,3.55
2022-12-03T15:27:13.096Z,3.61
2022-12-03T15:30:15.414Z,3.63
2022-12-03T15:33:17.686Z,3.63
2022-12-03T15:36:20.093Z,3.74
2022-12-03T15:39:22.430Z,3.61
2022-12-03T15:42:24.513Z,3.56
2022-12-03T15:45:26.735Z,3.47
2022-12-03T15:48:28.818Z,3.50
2022-12-03T15:51:32.781Z,3.49
2022-12-03T15:54:37.665Z,3.52
2022-12-03T15:57:39.873Z,3.37
2022-12-03T16:00:42.057Z,3.28
2022-12-03T16:03:44.096Z,3.35
2022-12-03T16:06:46.134Z,3.40
2022-12-03T16:09:48.453Z,3.27
2022-12-03T16:12:51.129Z,3.31
2022-12-03T16:15:53.533Z,3.26
2022-12-03T16:18:55.647Z,3.34
2022-12-03T16:21:57.982Z,3.40
2022-12-03T16:24:59.948Z,3.43
2022-12-03T16:28:02.237Z,3.47
2022-12-03T16:31:04.520Z,3.47
2022-12-03T16:34:06.638Z,3.50
2022-12-03T16:37:24.052Z,3.52
2022-12-03T16:40:26.233Z,3.52
2022-12-03T16:43:28.407Z,3.52
2022-12-03T16:46:30.681Z,3.56
2022-12-03T16:49:32.738Z,3.61
2022-12-03T16:52:35.714Z,3.60
2022-12-03T16:55:38.742Z,3.54
2022-12-03T16:58:41.913Z,3.52
2022-12-03T17:01:43.978Z,3.49
2022-12-03T17:04:46.138Z,3.56
2022-12-03T17:07:50.055Z,3.57
2022-12-03T17:10:53.450Z,3.52
2022-12-03T17:13:56.174Z,3.55
2022-12-03T17:17:00.348Z,3.47
2022-12-03T17:20:04.221Z,3.57
2022-12-03T17:23:06.772Z,3.62
2022-12-03T17:26:09.200Z,3.60
2022-12-03T17:29:11.706Z,3.63
2022-12-03T17:32:14.933Z,3.62
2022-12-03T17:35:17.771Z,3.64
2022-12-03T17:38:19.894Z,3.72
2022-12-03T17:41:22.726Z,3.75
2022-12-03T17:44:24.996Z,3.68
2022-12-03T17:47:27.145Z,3.74
2022-12-03T17:50:29.548Z,3.61
2022-12-03T17:53:31.933Z,3.59
2022-12-03T17:56:38.159Z,3.60
2022-12-03T17:59:41.023Z,3.61
2022-12-03T18:02:43.175Z,3.59
2022-12-03T18:05:46.480Z,3.47
2022-12-03T18:08:48.947Z,3.49
2022-12-03T18:11:51.902Z,3.61
2022-12-03T18:14:54.160Z,3.50
2022-12-03T18:17:56.621Z,3.46
2022-12-03T18:21:02.471Z,3.41
2022-12-03T18:24:05.280Z,3.35
2022-12-03T18:27:07.540Z,3.36
2022-12-03T18:30:10.855Z,3.34
2022-12-03T18:33:13.860Z,3.27
2022-12-03T18:36:22.043Z,3.24
2022-12-03T18:39:31.947Z,3.15
2022-12-03T18:42:36.673Z,3.25
2022-12-03T18:45:39.429Z,3.29
2022-12-03T18:48:43.097Z,3.32
2022-12-03T18:51:45.359Z,3.22
2022-12-03T18:54:48.377Z,3.18
2022-12-03T18:57:50.574Z,3.26
2022-12-03T19:00:53.313Z,3.27
2022-12-03T19:03:55.316Z,3.25
2022-12-03T19:06:57.656Z,3.29
2022-12-03T19:09:59.831Z,3.39
2022-12-03T19:13:04.107Z,3.48
2022-12-03T19:16:07.176Z,3.42
2022-12-03T19:19:09.531Z,3.46
2022-12-03T19:22:11.842Z,3.47
2022-12-03T19:25:14.032Z,3.46
2022-12-03T19:28:15.921Z,3.45
2022-12-03T19:31:18.559Z,3.55
2022-12-03T19:34:21.553Z,3.57
2022-12-03T19:37:24.942Z,3.54
2022-12-03T19:40:27.587Z,3.57
2022-12-03T19:43:32.591Z,3.51
2022-12-03T19:46:34.714Z,3.54
2022-12-03T19:49:36.686Z,3.50
2022-12-03T19:52:39.215Z,3.50
2022-12-03T19:55:41.148Z,3.51
2022-12-03T19:58:45.513Z,3.46
2022-12-03T20:01:47.834Z,3.47
2022-12-03T20:04:50.233Z,3.48
2022-12-03T20:07:52.399Z,3.48
2022-12-03T20:10:54.546Z,3.58
2022-12-03T20:13:58.530Z,3.60
2022-12-03T20:17:00.494Z,3.59
2022-12-03T20:20:03.135Z,3.61
2022-12-03T20:23:05.779Z,3.59
2022-12-03T20:26:13.490Z,3.54
2022-12-03T20:29:15.512Z,3.52
2022-12-03T20:32:18.777Z,3.48
2022-12-03T20:35:21.103Z,3.41
2022-12-03T20:38:27.363Z,3.50
2022-12-03T20:41:29.773Z,3.54
2022-12-03T20:44:31.936Z,3.61
2022-12-03T20:47:34.301Z,3.70
2022-12-03T20:50:40.040Z,3.73
2022-12-03T20:53:42.623Z,3.77
2022-12-03T20:56:44.577Z,3.79
2022-12-03T20:59:46.968Z,3.83
2022-12-03T21:02:49.598Z,3.86
2022-12-03T21:05:59.448Z,3.84
2022-12-03T21:09:02.816Z,3.87
2022-12-03T21:12:06.129Z,3.92
2022-12-03T21:15:08.540Z,3.89
2022-12-03T21:18:12.651Z,3.92
2022-12-03T21:21:16.113Z,4.00
2022-12-03T21:24:18.683Z,4.12
2022-12-03T21:27:21.941Z,4.20
2022-12-03T21:30:24.409Z,4.28
2022-12-03T21:33:27.718Z,4.47
2022-12-03T21:36:31.317Z,4.59
2022-12-03T21:39:33.555Z,4.62
2022-12-03T21:42:38.841Z,4.71
2022-12-03T21:45:42.572Z,4.79
2022-12-03T21:48:45.513Z,4.84
2022-12-03T21:51:49.981Z,4.91
2022-12-03T21:54:53.376Z,4.96
2022-12-03T21:57:56.512Z,5.00
2022-12-03T22:00:59.126Z,5.01
2022-12-03T22:04:01.443Z,5.03
2022-12-03T22:07:05.028Z,5.02
2022-12-03T22:10:10.419Z,4.98
2022-12-03T22:13:12.935Z,4.98
2022-12-03T22:16:17.791Z,5.00
2022-12-03T22:19:23.517Z,4.98
2022-12-03T22:22:25.955Z,5.03
2022-12-03T22:25:28.235Z,4.99
2022-12-03T22:28:30.510Z,5.02
2022-12-03T22:31:32.876Z,4.96
2022-12-03T22:34:35.168Z,5.03
2022-12-03T22:37:37.481Z,5.04
2022-12-03T22:40:40.041Z,5.02
2022-12-03T22:43:42.142Z,4.92
2022-12-03T22:46:44.612Z,4.82
2022-12-03T22:49:46.713Z,4.64
2022-12-03T22:52:48.899Z,4.53
2022-12-03T22:55:59.253Z,4.50
2022-12-03T22:59:01.517Z,4.62
2022-12-03T23:02:03.817Z,4.76
2022-12-03T23:05:07.318Z,4.81
2022-12-03T23:08:12.182Z,4.74
2022-12-03T23:11:14.532Z,4.58
2022-12-03T23:14:18.881Z,4.45
2022-12-03T23:17:20.774Z,4.47
2022-12-03T23:20:23.412Z,4.46
2022-12-03T23:23:27.572Z,4.42
2022-12-03T23:26:29.944Z,4.40
2022-12-03T23:29:34.670Z,4.40
2022-12-03T23:32:37.047Z,4.41
2022-12-03T23:35:39.372Z,4.38
2022-12-03T23:38:41.557Z,4.29
2022-12-03T23:41:43.616Z,4.11
2022-12-03T23:44:46.156Z,4.08
2022-12-03T23:47:48.156Z,4.03
2022-12-03T23:50:50.013Z,3.96
2022-12-03T23:53:53.293Z,3.91
2022-12-03T23:56:55.511Z,3.90
2022-12-03T23:59:57.528Z,3.93
